Time,TemperatureF,DewpointF,PressureIn,WindDirection,WindDirectionDegrees,WindSpeedMPH,WindSpeedGustMPH,Humidity,HourlyPrecipIn,Conditions,Clouds,dailyrainin,SolarRadiationWatts/m^2,SoftwareType,DateUTC
2013-08-05 00:02:00,57.6,57.0,29.88,NW,304,0.0,0.0,98,0.00,,,0.00,0,Wunderground v.1.15,2013-08-05 04:02:00,
2013-08-05 00:04:00,57.6,57.0,29.88,NW,304,0.0,0.0,98,0.00,,,0.00,0,Wunderground v.1.15,2013-08-05 04:04:00,
2013-08-05 00:09:00,57.5,56.9,29.88,NW,304,0.0,0.0,98,0.00,,,0.00,0,Wunderground v.1.15,2013-08-05 04:09:00,
2013-08-05 00:14:00,57.5,56.9,29.88,NW,304,0.0,0.0,98,0.00,,,0.00,0,Wunderground v.1.15,2013-08-05 04:14:00,
2013-08-05 00:19:00,57.6,57.0,29.88,NW,304,0.0,0.0,98,0.00,,,0.00,0,Wunderground v.1.15,2013-08-05 04:19:00,
2013-08-05 00:24:00,57.6,57.0,29.88,NW,304,0.0,0.0,98,0.00,,,0.00,0,Wunderground v.1.15,2013-08-05 04:24:00,
2013-08-05 00:30:00,57.6,57.0,29.89,NW,304,0.0,0.0,98,0.00,,,0.00,0,Wunderground v.1.15,2013-08-05 04:30:00,
2013-08-05 00:37:00,57.7,57.1,29.89,NW,304,0.0,0.0,98,0.00,,,0.00,0,Wunderground v.1.15,2013-08-05 04:37:00,
2013-08-05 00:42:00,57.7,57.1,29.89,NW,304,0.0,0.0,98,0.00,,,0.00,0,Wunderground v.1.15,2013-08-05 04:42:00,
2013-08-05 00:49:00,57.6,57.0,29.89,NW,304,0.0,0.0,98,0.00,,,0.00,0,Wunderground v.1.15,2013-08-05 04:49:00,
2013-08-05 00:53:00,57.4,56.8,29.89,NW,304,0.0,0.0,98,0.00,,,0.00,0,Wunderground v.1.15,2013-08-05 04:53:00,
2013-08-05 00:59:00,57.2,56.6,29.89,NW,304,0.0,0.0,98,0.00,,,0.00,0,Wunderground v.1.15,2013-08-05 04:59:00,
2013-08-05 01:05:00,57.1,56.5,29.89,NW,304,0.0,0.0,98,0.00,,,0.00,0,Wunderground v.1.15,2013-08-05 05:05:00,
2013-08-05 01:10:00,57.1,56.5,29.89,NW,304,0.0,0.0,98,0.00,,,0.00,0,Wunderground v.1.15,2013-08-05 05:10:00,
2013-08-05 01:15:00,57.1,56.5,29.89,NW,304,0.0,0.0,98,0.00,,,0.00,0,Wunderground v.1.15,2013-08-05 05:15:00,
2013-08-05 01:21:00,57.0,56.4,29.89,NW,304,0.0,0.0,98,0.00,,,0.00,0,Wunderground v.1.15,2013-08-05 05:21:00,
2013-08-05 01:27:00,57.0,56.4,29.89,NW,304,0.0,0.0,98,0.00,,,0.00,0,Wunderground v.1.15,2013-08-05 05:27:00,
2013-08-05 01:34:00,56.9,56.3,29.89,NW,304,0.0,0.0,98,0.00,,,0.00,0,Wunderground v.1.15,2013-08-05 05:34:00,
2013-08-05 01:39:00,56.8,56.2,29.88,NW,304,0.0,0.0,98,0.00,,,0.00,0,Wunderground v.1.15,2013-08-05 05:39:00,
2013-08-05 01:44:00,56.7,56.1,29.89,NW,304,0.0,0.0,98,0.00,,,0.00,0,Wunderground v.1.15,2013-08-05 05:44:00,
2013-08-05 01:50:00,56.6,56.0,29.88,NW,304,0.0,0.0,98,0.00,,,0.00,0,Wunderground v.1.15,2013-08-05 05:50:00,
2013-08-05 01:56:00,56.4,55.8,29.88,NW,304,0.0,0.0,98,0.00,,,0.00,0,Wunderground v.1.15,2013-08-05 05:56:00,
2013-08-05 02:01:00,56.3,55.7,29.88,NW,304,0.0,0.0,98,0.00,,,0.00,0,Wunderground v.1.15,2013-08-05 06:01:00,
2013-08-05 02:06:00,56.2,55.6,29.88,NW,304,0.0,0.0,98,0.00,,,0.00,0,Wunderground v.1.15,2013-08-05 06:06:00,
2013-08-05 02:11:00,56.1,55.5,29.88,NW,304,0.0,0.0,98,0.00,,,0.00,0,Wunderground v.1.15,2013-08-05 06:11:00,
2013-08-05 02:17:00,56.0,55.4,29.88,NW,304,0.0,0.0,98,0.00,,,0.00,0,Wunderground v.1.15,2013-08-05 06:17:00,
2013-08-05 02:22:00,55.9,55.3,29.88,NW,304,0.0,0.0,98,0.00,,,0.00,0,Wunderground v.1.15,2013-08-05 06:22:00,
2013-08-05 02:28:00,55.7,55.1,29.89,NW,304,0.0,0.0,98,0.00,,,0.00,0,Wunderground v.1.15,2013-08-05 06:28:00,
2013-08-05 02:33:00,55.6,55.0,29.89,NW,304,0.0,0.0,98,0.00,,,0.00,0,Wunderground v.1.15,2013-08-05 06:33:00,
2013-08-05 02:38:00,55.5,54.9,29.89,NW,304,0.0,0.0,98,0.00,,,0.00,0,Wunderground v.1.15,2013-08-05 06:38:00,
2013-08-05 02:44:00,55.3,54.7,29.89,NW,304,0.0,0.0,98,0.00,,,0.00,0,Wunderground v.1.15,2013-08-05 06:44:00,
2013-08-05 02:49:00,55.1,54.5,29.89,NW,304,0.0,0.0,98,0.00,,,0.00,0,Wunderground v.1.15,2013-08-05 06:49:00,
2013-08-05 02:55:00,55.0,54.4,29.89,NW,304,0.0,0.0,98,0.00,,,0.00,0,Wunderground v.1.15,2013-08-05 06:55:00,
2013-08-05 03:00:00,54.8,54.2,29.89,NW,304,0.0,0.0,98,0.00,,,0.00,0,Wunderground v.1.15,2013-08-05 07:00:00,
2013-08-05 03:05:00,54.8,54.2,29.89,NW,304,0.0,0.0,98,0.00,,,0.00,0,Wunderground v.1.15,2013-08-05 07:05:00,
2013-08-05 03:11:00,54.7,54.1,29.89,NW,304,0.0,0.0,98,0.00,,,0.00,0,Wunderground v.1.15,2013-08-05 07:11:00,
2013-08-05 03:16:00,54.7,54.1,29.89,NW,304,0.0,0.0,98,0.00,,,0.00,0,Wunderground v.1.15,2013-08-05 07:16:00,
2013-08-05 03:21:00,54.7,54.1,29.89,NW,304,0.0,0.0,98,0.00,,,0.00,0,Wunderground v.1.15,2013-08-05 07:21:00,
2013-08-05 03:27:00,54.6,54.0,29.90,NW,304,0.0,0.0,98,0.00,,,0.00,0,Wunderground v.1.15,2013-08-05 07:27:00,
2013-08-05 03:33:00,54.6,54.0,29.90,NW,304,0.0,0.0,98,0.00,,,0.00,0,Wunderground v.1.15,2013-08-05 07:33:00,
2013-08-05 03:39:00,54.7,54.1,29.90,NW,304,0.0,0.0,98,0.00,,,0.00,0,Wunderground v.1.15,2013-08-05 07:39:00,
2013-08-05 03:44:00,54.6,54.0,29.90,NW,304,0.0,0.0,98,0.00,,,0.00,0,Wunderground v.1.15,2013-08-05 07:44:00,
2013-08-05 03:49:00,54.5,53.9,29.90,NW,304,0.0,0.0,98,0.00,,,0.00,0,Wunderground v.1.15,2013-08-05 07:49:00,
2013-08-05 03:55:00,54.4,53.8,29.90,NW,304,0.0,0.0,98,0.00,,,0.00,0,Wunderground v.1.15,2013-08-05 07:55:00,
2013-08-05 04:00:00,54.3,53.7,29.90,NW,304,0.0,0.0,98,0.00,,,0.00,0,Wunderground v.1.15,2013-08-05 08:00:00,
2013-08-05 04:07:00,54.2,53.6,29.91,NW,304,0.0,0.0,98,0.00,,,0.00,0,Wunderground v.1.15,2013-08-05 08:07:00,
2013-08-05 04:12:00,54.1,53.5,29.91,NW,304,0.0,0.0,98,0.00,,,0.00,0,Wunderground v.1.15,2013-08-05 08:12:00,
2013-08-05 04:18:00,54.0,53.4,29.91,NW,304,0.0,0.0,98,0.00,,,0.00,0,Wunderground v.1.15,2013-08-05 08:18:00,
2013-08-05 04:24:00,53.9,53.3,29.91,NW,304,0.0,0.0,98,0.00,,,0.00,0,Wunderground v.1.15,2013-08-05 08:24:00,
2013-08-05 04:29:00,53.8,53.2,29.91,NW,304,0.0,0.0,98,0.00,,,0.00,0,Wunderground v.1.15,2013-08-05 08:29:00,
2013-08-05 04:34:00,53.8,53.2,29.91,NW,304,0.0,0.0,98,0.00,,,0.00,0,Wunderground v.1.15,2013-08-05 08:34:00,
2013-08-05 04:40:00,53.8,53.2,29.91,NW,304,0.0,0.0,98,0.00,,,0.00,0,Wunderground v.1.15,2013-08-05 08:40:00,
2013-08-05 04:47:00,53.8,53.2,29.91,NW,304,0.0,0.0,98,0.00,,,0.00,0,Wunderground v.1.15,2013-08-05 08:47:00,
2013-08-05 04:53:00,54.0,53.4,29.92,WNW,302,0.0,0.0,98,0.00,,,0.00,0,Wunderground v.1.15,2013-08-05 08:53:00,
2013-08-05 05:00:00,54.1,53.5,29.92,WNW,300,0.0,0.0,98,0.00,,,0.00,0,Wunderground v.1.15,2013-08-05 09:00:00,
2013-08-05 05:06:00,54.1,53.5,29.92,WNW,300,0.0,0.0,98,0.00,,,0.00,0,Wunderground v.1.15,2013-08-05 09:06:00,
2013-08-05 05:10:00,54.1,53.5,29.92,WNW,300,0.0,0.0,98,0.00,,,0.00,0,Wunderground v.1.15,2013-08-05 09:10:00,
2013-08-05 05:17:00,54.1,53.5,29.93,WNW,300,0.0,0.0,98,0.00,,,0.00,0,Wunderground v.1.15,2013-08-05 09:17:00,
2013-08-05 05:22:00,54.1,53.5,29.93,NW,317,0.0,1.0,98,0.00,,,0.00,0,Wunderground v.1.15,2013-08-05 09:22:00,
2013-08-05 05:28:00,53.9,53.1,29.93,NW,317,0.0,1.0,97,0.00,,,0.00,0,Wunderground v.1.15,2013-08-05 09:28:00,
2013-08-05 05:34:00,53.8,53.0,29.93,NW,317,0.0,0.0,97,0.00,,,0.00,0,Wunderground v.1.15,2013-08-05 09:34:00,
2013-08-05 05:40:00,54.0,53.4,29.94,NW,317,0.0,0.0,98,0.00,,,0.00,0,Wunderground v.1.15,2013-08-05 09:40:00,
2013-08-05 05:45:00,53.8,53.0,29.94,NW,317,0.0,0.0,97,0.00,,,0.00,0,Wunderground v.1.15,2013-08-05 09:45:00,
2013-08-05 05:51:00,53.6,52.8,29.94,NW,317,0.0,0.0,97,0.00,,,0.00,0,Wunderground v.1.15,2013-08-05 09:51:00,
2013-08-05 05:56:00,53.4,52.6,29.94,NW,317,0.0,0.0,97,0.00,,,0.00,5,Wunderground v.1.15,2013-08-05 09:56:00,
2013-08-05 06:02:00,53.4,52.8,29.94,NW,317,0.0,0.0,98,0.00,,,0.00,5,Wunderground v.1.15,2013-08-05 10:02:00,
2013-08-05 06:07:00,53.3,52.5,29.94,NW,317,0.0,0.0,97,0.00,,,0.00,7,Wunderground v.1.15,2013-08-05 10:07:00,
2013-08-05 06:13:00,53.2,52.7,29.95,SSE,150,0.0,0.0,98,0.00,,,0.00,9,Wunderground v.1.15,2013-08-05 10:13:00,
2013-08-05 06:18:00,53.3,52.8,29.95,SSE,150,0.0,0.0,98,0.00,,,0.00,11,Wunderground v.1.15,2013-08-05 10:18:00,
2013-08-05 06:24:00,53.5,52.9,29.95,WNW,292,0.0,1.0,98,0.00,,,0.00,12,Wunderground v.1.15,2013-08-05 10:24:00,
2013-08-05 06:28:00,53.7,53.1,29.95,WNW,292,0.0,1.0,98,0.00,,,0.00,14,Wunderground v.1.15,2013-08-05 10:28:00,
2013-08-05 06:34:00,53.8,53.2,29.95,WNW,294,0.0,0.0,98,0.00,,,0.00,14,Wunderground v.1.15,2013-08-05 10:34:00,
2013-08-05 06:40:00,54.0,53.4,29.96,WNW,296,0.0,0.0,98,0.00,,,0.00,16,Wunderground v.1.15,2013-08-05 10:40:00,
2013-08-05 06:45:00,54.2,53.6,29.96,WNW,295,0.0,0.0,98,0.00,,,0.00,18,Wunderground v.1.15,2013-08-05 10:45:00,
2013-08-05 06:50:00,54.5,53.9,29.96,NW,309,0.0,0.0,98,0.00,,,0.00,19,Wunderground v.1.15,2013-08-05 10:50:00,
2013-08-05 06:55:00,54.9,54.3,29.96,North,5,0.0,0.0,98,0.00,,,0.00,21,Wunderground v.1.15,2013-08-05 10:55:00,
2013-08-05 07:02:00,55.4,54.8,29.96,WNW,283,0.0,2.0,98,0.00,,,0.00,23,Wunderground v.1.15,2013-08-05 11:02:00,
2013-08-05 07:07:00,55.7,54.9,29.96,NW,304,0.0,2.0,97,0.00,,,0.00,25,Wunderground v.1.15,2013-08-05 11:07:00,
2013-08-05 07:12:00,56.0,55.2,29.96,NW,304,0.0,0.0,97,0.00,,,0.00,25,Wunderground v.1.15,2013-08-05 11:12:00,
2013-08-05 07:17:00,56.5,55.4,29.96,WNW,290,0.0,3.0,96,0.00,,,0.00,30,Wunderground v.1.15,2013-08-05 11:17:00,
2013-08-05 07:24:00,56.9,55.8,29.96,NNE,30,0.0,0.0,96,0.00,,,0.00,26,Wunderground v.1.15,2013-08-05 11:24:00,
2013-08-05 07:29:00,57.2,55.8,29.96,West,275,0.0,0.0,95,0.00,,,0.00,30,Wunderground v.1.15,2013-08-05 11:29:00,
2013-08-05 07:36:00,57.6,56.2,29.97,WNW,298,0.0,1.0,95,0.00,,,0.00,30,Wunderground v.1.15,2013-08-05 11:36:00,
2013-08-05 07:42:00,58.0,56.3,29.97,West,277,0.0,1.0,94,0.00,,,0.00,35,Wunderground v.1.15,2013-08-05 11:42:00,
2013-08-05 07:47:00,58.3,56.3,29.97,NW,315,0.0,1.0,93,0.00,,,0.00,33,Wunderground v.1.15,2013-08-05 11:47:00,
2013-08-05 07:52:00,58.7,56.7,29.97,NW,315,0.0,0.0,93,0.00,,,0.00,33,Wunderground v.1.15,2013-08-05 11:52:00,
2013-08-05 07:57:00,58.8,57.1,29.96,NW,311,0.0,1.0,94,0.00,,,0.00,35,Wunderground v.1.15,2013-08-05 11:57:00,
2013-08-05 08:03:00,59.1,56.5,29.96,NNE,33,0.0,1.0,91,0.00,,,0.00,40,Wunderground v.1.15,2013-08-05 12:03:00,
2013-08-05 08:09:00,59.6,56.7,29.96,WNW,288,1.0,3.0,90,0.00,,,0.00,39,Wunderground v.1.15,2013-08-05 12:09:00,
2013-08-05 08:16:00,59.9,56.6,29.96,West,281,1.0,1.0,89,0.00,,,0.00,60,Wunderground v.1.15,2013-08-05 12:16:00,
2013-08-05 08:21:00,60.5,57.6,29.97,North,355,0.0,1.0,90,0.00,,,0.00,46,Wunderground v.1.15,2013-08-05 12:21:00,
2013-08-05 08:28:00,60.8,57.2,29.97,NW,307,1.0,2.0,88,0.00,,,0.00,51,Wunderground v.1.15,2013-08-05 12:28:00,
2013-08-05 08:33:00,61.3,57.4,29.96,NW,310,1.0,3.0,87,0.00,,,0.00,69,Wunderground v.1.15,2013-08-05 12:33:00,
2013-08-05 08:38:00,61.6,57.7,29.96,NW,320,1.0,4.0,87,0.00,,,0.00,54,Wunderground v.1.15,2013-08-05 12:38:00,
2013-08-05 08:44:00,62.1,57.2,29.96,NNE,12,1.0,2.0,84,0.00,,,0.00,288,Wunderground v.1.15,2013-08-05 12:44:00,
2013-08-05 08:49:00,62.5,57.9,29.96,WNW,290,0.0,2.0,85,0.00,,,0.00,151,Wunderground v.1.15,2013-08-05 12:49:00,
2013-08-05 08:54:00,63.1,58.8,29.96,WNW,298,0.0,1.0,86,0.00,,,0.00,422,Wunderground v.1.15,2013-08-05 12:54:00,
2013-08-05 08:59:00,63.3,57.0,29.96,West,265,1.0,3.0,80,0.00,,,0.00,107,Wunderground v.1.15,2013-08-05 12:59:00,
2013-08-05 09:05:00,63.8,58.9,29.96,NW,319,1.0,1.0,84,0.00,,,0.00,70,Wunderground v.1.15,2013-08-05 13:05:00,
2013-08-05 09:10:00,64.1,57.8,29.96,NW,324,1.0,2.0,80,0.00,,,0.00,56,Wunderground v.1.15,2013-08-05 13:10:00,
2013-08-05 09:15:00,64.1,57.5,29.96,West,279,1.0,2.0,79,0.00,,,0.00,69,Wunderground v.1.15,2013-08-05 13:15:00,
2013-08-05 09:21:00,64.2,57.5,29.96,WNW,298,2.0,2.0,79,0.00,,,0.00,60,Wunderground v.1.15,2013-08-05 13:21:00,
2013-08-05 09:28:00,64.7,57.3,29.96,WNW,300,1.0,2.0,77,0.00,,,0.00,77,Wunderground v.1.15,2013-08-05 13:28:00,
2013-08-05 09:34:00,65.0,57.6,29.96,NNW,327,1.0,1.0,77,0.00,,,0.00,63,Wunderground v.1.15,2013-08-05 13:34:00,
2013-08-05 09:39:00,64.9,56.4,29.96,NW,324,0.0,2.0,74,0.00,,,0.00,65,Wunderground v.1.15,2013-08-05 13:39:00,
2013-08-05 09:46:00,64.9,56.0,29.96,WSW,242,1.0,5.0,73,0.00,,,0.00,58,Wunderground v.1.15,2013-08-05 13:46:00,
2013-08-05 09:53:00,65.1,55.5,29.96,WSW,240,1.0,2.0,71,0.00,,,0.00,63,Wunderground v.1.15,2013-08-05 13:53:00,
2013-08-05 10:00:00,65.3,55.7,29.96,NE,44,1.0,4.0,71,0.00,,,0.00,97,Wunderground v.1.15,2013-08-05 14:00:00,
2013-08-05 10:06:00,65.7,54.4,29.96,NW,316,1.0,4.0,67,0.00,,,0.00,113,Wunderground v.1.15,2013-08-05 14:06:00,
2013-08-05 10:12:00,66.1,55.2,29.96,NNW,347,1.0,4.0,68,0.00,,,0.00,63,Wunderground v.1.15,2013-08-05 14:12:00,
2013-08-05 10:18:00,66.7,54.6,29.96,WSW,246,1.0,4.0,65,0.00,,,0.00,104,Wunderground v.1.15,2013-08-05 14:18:00,
2013-08-05 10:25:00,67.3,54.7,29.96,North,360,2.0,3.0,64,0.00,,,0.00,84,Wunderground v.1.15,2013-08-05 14:25:00,
2013-08-05 10:30:00,67.8,55.6,29.96,WNW,286,2.0,2.0,65,0.00,,,0.00,271,Wunderground v.1.15,2013-08-05 14:30:00,
2013-08-05 10:35:00,68.4,53.5,29.96,West,278,1.0,2.0,59,0.00,,,0.00,835,Wunderground v.1.15,2013-08-05 14:35:00,
2013-08-05 10:42:00,69.5,55.0,29.96,WNW,300,1.0,2.0,60,0.00,,,0.00,849,Wunderground v.1.15,2013-08-05 14:42:00,
2013-08-05 10:48:00,69.7,54.3,29.96,West,278,1.0,2.0,58,0.00,,,0.00,863,Wunderground v.1.15,2013-08-05 14:48:00,
2013-08-05 10:53:00,70.2,53.8,29.96,West,265,1.0,3.0,56,0.00,,,0.00,872,Wunderground v.1.15,2013-08-05 14:53:00,
2013-08-05 10:59:00,70.3,53.4,29.96,NNW,327,2.0,4.0,55,0.00,,,0.00,884,Wunderground v.1.15,2013-08-05 14:59:00,
2013-08-05 11:04:00,70.7,54.2,29.96,NNW,334,2.0,7.0,56,0.00,,,0.00,891,Wunderground v.1.15,2013-08-05 15:04:00,
2013-08-05 11:10:00,71.0,53.0,29.96,NE,34,2.0,2.0,53,0.00,,,0.00,900,Wunderground v.1.15,2013-08-05 15:10:00,
2013-08-05 11:16:00,71.3,52.8,29.96,SSW,198,1.0,2.0,52,0.00,,,0.00,909,Wunderground v.1.15,2013-08-05 15:16:00,
2013-08-05 11:21:00,72.1,56.0,29.96,NNW,327,1.0,3.0,57,0.00,,,0.00,916,Wunderground v.1.15,2013-08-05 15:21:00,
2013-08-05 11:27:00,71.7,53.1,29.95,North,11,2.0,5.0,52,0.00,,,0.00,921,Wunderground v.1.15,2013-08-05 15:27:00,
2013-08-05 11:32:00,71.0,54.5,29.96,NNE,22,2.0,4.0,56,0.00,,,0.00,930,Wunderground v.1.15,2013-08-05 15:32:00,
2013-08-05 11:37:00,71.9,53.8,29.96,SW,227,2.0,4.0,53,0.00,,,0.00,935,Wunderground v.1.15,2013-08-05 15:37:00,
2013-08-05 11:43:00,72.8,53.1,29.96,North,5,1.0,1.0,50,0.00,,,0.00,940,Wunderground v.1.15,2013-08-05 15:43:00,
2013-08-05 11:49:00,72.5,51.1,29.96,NW,306,1.0,2.0,47,0.00,,,0.00,953,Wunderground v.1.15,2013-08-05 15:49:00,
2013-08-05 11:53:00,72.5,52.2,29.96,SW,225,2.0,2.0,49,0.00,,,0.00,951,Wunderground v.1.15,2013-08-05 15:53:00,
2013-08-05 12:02:00,71.7,53.1,29.96,NNW,345,2.0,3.0,52,0.00,,,0.00,872,Wunderground v.1.15,2013-08-05 16:02:00,
2013-08-05 12:07:00,71.9,50.6,29.96,NE,36,2.0,3.0,47,0.00,,,0.00,74,Wunderground v.1.15,2013-08-05 16:07:00,
2013-08-05 12:13:00,71.5,51.9,29.96,NE,40,2.0,6.0,50,0.00,,,0.00,76,Wunderground v.1.15,2013-08-05 16:13:00,
2013-08-05 12:18:00,71.4,52.3,29.96,North,11,2.0,6.0,51,0.00,,,0.00,91,Wunderground v.1.15,2013-08-05 16:18:00,
2013-08-05 12:23:00,71.3,50.6,29.96,WNW,296,2.0,4.0,48,0.00,,,0.00,67,Wunderground v.1.15,2013-08-05 16:23:00,
2013-08-05 12:28:00,71.0,50.3,29.96,North,355,2.0,4.0,48,0.00,,,0.00,67,Wunderground v.1.15,2013-08-05 16:28:00,
2013-08-05 12:33:00,71.2,51.1,29.96,NNW,327,1.0,3.0,49,0.00,,,0.00,148,Wunderground v.1.15,2013-08-05 16:33:00,
2013-08-05 12:39:00,71.2,50.5,29.96,West,268,1.0,4.0,48,0.00,,,0.00,88,Wunderground v.1.15,2013-08-05 16:39:00,
2013-08-05 12:45:00,70.8,50.1,29.96,WSW,248,2.0,6.0,48,0.00,,,0.00,121,Wunderground v.1.15,2013-08-05 16:45:00,
2013-08-05 12:50:00,70.8,49.0,29.96,NNE,33,2.0,2.0,46,0.00,,,0.00,91,Wunderground v.1.15,2013-08-05 16:50:00,
2013-08-05 12:55:00,70.9,49.7,29.96,WNW,300,1.0,2.0,47,0.00,,,0.00,69,Wunderground v.1.15,2013-08-05 16:55:00,
2013-08-05 13:01:00,71.0,50.3,29.96,South,184,1.0,1.0,48,0.00,,,0.00,424,Wunderground v.1.15,2013-08-05 17:01:00,
2013-08-05 13:06:00,70.7,48.3,29.96,West,279,2.0,2.0,45,0.00,,,0.00,95,Wunderground v.1.15,2013-08-05 17:06:00,
2013-08-05 13:12:00,70.7,49.5,29.96,WNW,301,1.0,2.0,47,0.00,,,0.00,67,Wunderground v.1.15,2013-08-05 17:12:00,
2013-08-05 13:18:00,70.6,48.8,29.96,SSW,194,1.0,2.0,46,0.00,,,0.00,67,Wunderground v.1.15,2013-08-05 17:18:00,
2013-08-05 13:23:00,70.8,48.4,29.96,NW,312,1.0,2.0,45,0.00,,,0.00,74,Wunderground v.1.15,2013-08-05 17:23:00,
2013-08-05 13:28:00,70.6,45.7,29.96,West,261,2.0,2.0,41,0.00,,,0.00,84,Wunderground v.1.15,2013-08-05 17:28:00,
2013-08-05 13:33:00,70.5,48.1,29.95,West,261,2.0,3.0,45,0.00,,,0.00,130,Wunderground v.1.15,2013-08-05 17:33:00,
2013-08-05 13:39:00,70.6,47.0,29.96,WNW,291,1.0,4.0,43,0.00,,,0.00,63,Wunderground v.1.15,2013-08-05 17:39:00,
2013-08-05 13:45:00,70.7,47.1,29.96,NNE,18,2.0,4.0,43,0.00,,,0.00,63,Wunderground v.1.15,2013-08-05 17:45:00,
2013-08-05 13:49:00,70.6,46.4,29.95,NNW,329,2.0,2.0,42,0.00,,,0.00,63,Wunderground v.1.15,2013-08-05 17:49:00,
2013-08-05 13:56:00,70.7,47.7,29.96,SSW,203,2.0,3.0,44,0.00,,,0.00,63,Wunderground v.1.15,2013-08-05 17:56:00,
2013-08-05 14:02:00,70.4,46.8,29.96,NW,319,2.0,3.0,43,0.00,,,0.00,70,Wunderground v.1.15,2013-08-05 18:02:00,
2013-08-05 14:08:00,71.3,48.3,29.96,NW,309,2.0,3.0,44,0.00,,,0.00,63,Wunderground v.1.15,2013-08-05 18:08:00,
2013-08-05 14:14:00,71.3,48.3,29.96,WNW,292,1.0,3.0,44,0.00,,,0.00,63,Wunderground v.1.15,2013-08-05 18:14:00,
2013-08-05 14:19:00,71.2,49.9,29.96,ESE,113,1.0,4.0,47,0.00,,,0.00,62,Wunderground v.1.15,2013-08-05 18:19:00,
2013-08-05 14:24:00,71.3,49.4,29.96,NW,304,1.0,2.0,46,0.00,,,0.00,63,Wunderground v.1.15,2013-08-05 18:24:00,
2013-08-05 14:29:00,71.3,50.6,29.96,North,360,1.0,3.0,48,0.00,,,0.00,62,Wunderground v.1.15,2013-08-05 18:29:00,
2013-08-05 14:35:00,71.8,49.9,29.95,WSW,251,1.0,1.0,46,0.00,,,0.00,62,Wunderground v.1.15,2013-08-05 18:35:00,
2013-08-05 14:42:00,71.7,49.2,29.95,NNW,346,1.0,1.0,45,0.00,,,0.00,63,Wunderground v.1.15,2013-08-05 18:42:00,
2013-08-05 14:48:00,72.3,47.9,29.95,West,281,2.0,5.0,42,0.00,,,0.00,63,Wunderground v.1.15,2013-08-05 18:48:00,
2013-08-05 14:53:00,72.4,48.6,29.95,West,279,2.0,2.0,43,0.00,,,0.00,91,Wunderground v.1.15,2013-08-05 18:53:00,
2013-08-05 15:01:00,72.7,47.6,29.95,WNW,288,1.0,2.0,41,0.00,,,0.00,65,Wunderground v.1.15,2013-08-05 19:01:00,
2013-08-05 15:07:00,72.6,48.2,29.95,WSW,251,1.0,5.0,42,0.00,,,0.00,65,Wunderground v.1.15,2013-08-05 19:07:00,
2013-08-05 15:12:00,73.1,50.5,29.95,NW,324,1.0,2.0,45,0.00,,,0.00,74,Wunderground v.1.15,2013-08-05 19:12:00,
2013-08-05 15:18:00,73.8,49.3,29.95,NE,35,1.0,2.0,42,0.00,,,0.00,113,Wunderground v.1.15,2013-08-05 19:18:00,
2013-08-05 15:24:00,73.8,49.3,29.95,NE,46,1.0,5.0,42,0.00,,,0.00,244,Wunderground v.1.15,2013-08-05 19:24:00,
2013-08-05 15:30:00,73.8,52.3,29.95,North,355,1.0,1.0,47,0.00,,,0.00,325,Wunderground v.1.15,2013-08-05 19:30:00,
2013-08-05 15:35:00,74.6,49.3,29.95,North,5,1.0,2.0,41,0.00,,,0.00,156,Wunderground v.1.15,2013-08-05 19:35:00,
2013-08-05 15:40:00,74.5,47.9,29.95,West,280,1.0,1.0,39,0.00,,,0.00,534,Wunderground v.1.15,2013-08-05 19:40:00,
2013-08-05 15:45:00,74.6,49.3,29.95,WNW,284,1.0,4.0,41,0.00,,,0.00,738,Wunderground v.1.15,2013-08-05 19:45:00,
2013-08-05 15:51:00,75.2,49.2,29.95,WNW,286,1.0,2.0,40,0.00,,,0.00,726,Wunderground v.1.15,2013-08-05 19:51:00,
2013-08-05 15:56:00,75.5,48.8,29.95,WNW,295,1.0,3.0,39,0.00,,,0.00,714,Wunderground v.1.15,2013-08-05 19:56:00,
2013-08-05 16:02:00,74.8,48.9,29.95,North,5,1.0,1.0,40,0.00,,,0.00,701,Wunderground v.1.15,2013-08-05 20:02:00,
2013-08-05 16:08:00,75.4,50.1,29.95,WNW,298,1.0,4.0,41,0.00,,,0.00,682,Wunderground v.1.15,2013-08-05 20:08:00,
2013-08-05 16:14:00,75.2,49.2,29.95,WSW,248,2.0,4.0,40,0.00,,,0.00,668,Wunderground v.1.15,2013-08-05 20:14:00,
2013-08-05 16:20:00,75.5,49.5,29.95,North,350,1.0,1.0,40,0.00,,,0.00,647,Wunderground v.1.15,2013-08-05 20:20:00,
2013-08-05 16:25:00,75.6,50.9,29.95,East,93,1.0,1.0,42,0.00,,,0.00,635,Wunderground v.1.15,2013-08-05 20:25:00,
2013-08-05 16:30:00,75.5,48.8,29.95,NW,316,0.0,0.0,39,0.00,,,0.00,619,Wunderground v.1.15,2013-08-05 20:30:00,
2013-08-05 16:36:00,75.6,52.1,29.96,WNW,295,1.0,2.0,44,0.00,,,0.00,603,Wunderground v.1.15,2013-08-05 20:36:00,
2013-08-05 16:41:00,75.7,51.0,29.96,West,269,1.0,1.0,42,0.00,,,0.00,587,Wunderground v.1.15,2013-08-05 20:41:00,
2013-08-05 16:46:00,75.3,49.3,29.96,West,279,1.0,2.0,40,0.00,,,0.00,571,Wunderground v.1.15,2013-08-05 20:46:00,
2013-08-05 16:52:00,75.1,49.8,29.96,WNW,290,0.0,1.0,41,0.00,,,0.00,552,Wunderground v.1.15,2013-08-05 20:52:00,
2013-08-05 16:58:00,75.4,51.3,29.95,West,277,1.0,5.0,43,0.00,,,0.00,531,Wunderground v.1.15,2013-08-05 20:58:00,
2013-08-05 17:03:00,75.0,50.3,29.96,North,350,1.0,3.0,42,0.00,,,0.00,515,Wunderground v.1.15,2013-08-05 21:03:00,
2013-08-05 17:08:00,74.9,48.3,29.96,NNW,346,1.0,3.0,39,0.00,,,0.00,497,Wunderground v.1.15,2013-08-05 21:08:00,
2013-08-05 17:15:00,74.4,50.4,29.96,NNW,347,0.0,1.0,43,0.00,,,0.00,475,Wunderground v.1.15,2013-08-05 21:15:00,
2013-08-05 17:21:00,74.5,51.8,29.96,West,279,1.0,1.0,45,0.00,,,0.00,454,Wunderground v.1.15,2013-08-05 21:21:00,
2013-08-05 17:27:00,73.6,52.7,29.96,NNE,24,0.0,1.0,48,0.00,,,0.00,432,Wunderground v.1.15,2013-08-05 21:27:00,
2013-08-05 17:33:00,72.3,54.7,29.96,SSE,147,1.0,3.0,54,0.00,,,0.00,411,Wunderground v.1.15,2013-08-05 21:33:00,
2013-08-05 17:38:00,71.5,52.9,29.96,SE,126,1.0,4.0,52,0.00,,,0.00,392,Wunderground v.1.15,2013-08-05 21:38:00,
2013-08-05 17:44:00,71.7,54.2,29.96,WSW,243,1.0,1.0,54,0.00,,,0.00,371,Wunderground v.1.15,2013-08-05 21:44:00,
2013-08-05 17:50:00,71.3,53.8,29.97,SSE,168,0.0,0.0,54,0.00,,,0.00,352,Wunderground v.1.15,2013-08-05 21:50:00,
2013-08-05 17:56:00,70.9,54.4,29.96,SSE,155,1.0,2.0,56,0.00,,,0.00,318,Wunderground v.1.15,2013-08-05 21:56:00,
2013-08-05 18:02:00,70.8,54.3,29.97,ESE,119,1.0,1.0,56,0.00,,,0.00,299,Wunderground v.1.15,2013-08-05 22:02:00,
2013-08-05 18:08:00,70.7,54.7,29.97,SSE,147,0.0,1.0,57,0.00,,,0.00,188,Wunderground v.1.15,2013-08-05 22:08:00,
2013-08-05 18:14:00,70.6,54.6,29.97,South,173,0.0,1.0,57,0.00,,,0.00,62,Wunderground v.1.15,2013-08-05 22:14:00,
2013-08-05 18:19:00,70.5,54.5,29.97,SE,131,0.0,1.0,57,0.00,,,0.00,165,Wunderground v.1.15,2013-08-05 22:19:00,
2013-08-05 18:24:00,70.1,54.6,29.97,SE,138,0.0,0.0,58,0.00,,,0.00,81,Wunderground v.1.15,2013-08-05 22:24:00,
2013-08-05 18:30:00,69.6,54.6,29.98,SE,136,0.0,0.0,59,0.00,,,0.00,42,Wunderground v.1.15,2013-08-05 22:30:00,
2013-08-05 18:35:00,69.5,54.5,29.98,SSE,153,0.0,0.0,59,0.00,,,0.00,169,Wunderground v.1.15,2013-08-05 22:35:00,
2013-08-05 18:41:00,69.1,54.2,29.98,South,182,0.0,0.0,59,0.00,,,0.00,35,Wunderground v.1.15,2013-08-05 22:41:00,
2013-08-05 18:47:00,68.6,55.5,29.98,South,182,0.0,0.0,63,0.00,,,0.00,33,Wunderground v.1.15,2013-08-05 22:47:00,
2013-08-05 18:52:00,68.0,55.4,29.99,South,182,0.0,0.0,64,0.00,,,0.00,32,Wunderground v.1.15,2013-08-05 22:52:00,
2013-08-05 18:57:00,68.0,55.8,29.99,South,182,0.0,0.0,65,0.00,,,0.00,28,Wunderground v.1.15,2013-08-05 22:57:00,
2013-08-05 19:02:00,67.7,55.5,29.99,South,182,0.0,0.0,65,0.00,,,0.00,26,Wunderground v.1.15,2013-08-05 23:02:00,
2013-08-05 19:10:00,66.8,56.3,29.99,South,182,0.0,0.0,69,0.00,,,0.00,23,Wunderground v.1.15,2013-08-05 23:10:00,
2013-08-05 19:15:00,66.3,57.4,30.00,South,182,0.0,0.0,73,0.00,,,0.00,19,Wunderground v.1.15,2013-08-05 23:15:00,
2013-08-05 19:20:00,65.7,57.2,30.00,South,182,0.0,0.0,74,0.00,,,0.00,18,Wunderground v.1.15,2013-08-05 23:20:00,
2013-08-05 19:26:00,65.3,56.0,30.00,South,182,0.0,0.0,72,0.00,,,0.00,14,Wunderground v.1.15,2013-08-05 23:26:00,
2013-08-05 19:32:00,64.7,56.6,30.00,South,182,0.0,0.0,75,0.00,,,0.00,11,Wunderground v.1.15,2013-08-05 23:32:00,
2013-08-05 19:37:00,64.4,56.7,30.00,South,182,0.0,0.0,76,0.00,,,0.00,9,Wunderground v.1.15,2013-08-05 23:37:00,
2013-08-05 19:43:00,63.9,57.3,30.00,South,182,0.0,0.0,79,0.00,,,0.00,5,Wunderground v.1.15,2013-08-05 23:43:00,
2013-08-05 19:49:00,63.5,56.9,30.00,South,182,0.0,0.0,79,0.00,,,0.00,0,Wunderground v.1.15,2013-08-05 23:49:00,
2013-08-05 19:54:00,63.2,56.6,30.01,South,182,0.0,0.0,79,0.00,,,0.00,0,Wunderground v.1.15,2013-08-05 23:54:00,
2013-08-05 19:59:00,63.0,55.7,30.01,South,182,0.0,0.0,77,0.00,,,0.00,0,Wunderground v.1.15,2013-08-05 23:59:00,
2013-08-05 20:05:00,62.6,56.0,30.01,South,182,0.0,0.0,79,0.00,,,0.00,0,Wunderground v.1.15,2013-08-06 00:05:00,
2013-08-05 20:11:00,62.3,56.4,30.01,South,182,0.0,0.0,81,0.00,,,0.00,0,Wunderground v.1.15,2013-08-06 00:11:00,
2013-08-05 20:16:00,61.9,56.3,30.01,South,182,0.0,0.0,82,0.00,,,0.00,0,Wunderground v.1.15,2013-08-06 00:16:00,
2013-08-05 20:21:00,61.5,56.0,30.01,South,182,0.0,0.0,82,0.00,,,0.00,0,Wunderground v.1.15,2013-08-06 00:21:00,
2013-08-05 20:26:00,61.4,56.2,30.01,South,182,0.0,0.0,83,0.00,,,0.00,0,Wunderground v.1.15,2013-08-06 00:26:00,
2013-08-05 20:32:00,61.1,55.9,30.01,South,182,0.0,0.0,83,0.00,,,0.00,0,Wunderground v.1.15,2013-08-06 00:32:00,
2013-08-05 20:37:00,61.0,55.8,30.02,South,182,0.0,0.0,83,0.00,,,0.00,0,Wunderground v.1.15,2013-08-06 00:37:00,
2013-08-05 20:44:00,61.4,56.2,30.02,South,182,0.0,0.0,83,0.00,,,0.00,0,Wunderground v.1.15,2013-08-06 00:44:00,
2013-08-05 20:49:00,61.2,56.0,30.02,South,182,0.0,0.0,83,0.00,,,0.00,0,Wunderground v.1.15,2013-08-06 00:49:00,
2013-08-05 20:55:00,60.8,55.6,30.03,South,182,0.0,0.0,83,0.00,,,0.00,0,Wunderground v.1.15,2013-08-06 00:55:00,
2013-08-05 21:00:00,60.3,55.1,30.03,South,182,0.0,0.0,83,0.00,,,0.00,0,Wunderground v.1.15,2013-08-06 01:00:00,
2013-08-05 21:06:00,60.0,55.5,30.03,South,182,0.0,0.0,85,0.00,,,0.00,0,Wunderground v.1.15,2013-08-06 01:06:00,
2013-08-05 21:11:00,59.7,55.8,30.03,South,182,0.0,0.0,87,0.00,,,0.00,0,Wunderground v.1.15,2013-08-06 01:11:00,
2013-08-05 21:18:00,59.3,56.1,30.03,South,182,0.0,0.0,89,0.00,,,0.00,0,Wunderground v.1.15,2013-08-06 01:18:00,
2013-08-05 21:24:00,59.1,55.9,30.03,South,182,0.0,0.0,89,0.00,,,0.00,0,Wunderground v.1.15,2013-08-06 01:24:00,
2013-08-05 21:29:00,58.8,55.9,30.03,South,182,0.0,0.0,90,0.00,,,0.00,0,Wunderground v.1.15,2013-08-06 01:29:00,
2013-08-05 21:34:00,58.5,55.9,30.03,South,182,0.0,0.0,91,0.00,,,0.00,0,Wunderground v.1.15,2013-08-06 01:34:00,
2013-08-05 21:39:00,58.3,55.7,30.03,South,182,0.0,0.0,91,0.00,,,0.00,0,Wunderground v.1.15,2013-08-06 01:39:00,
2013-08-05 21:46:00,58.4,55.8,30.04,South,182,0.0,0.0,91,0.00,,,0.00,0,Wunderground v.1.15,2013-08-06 01:46:00,
2013-08-05 21:54:00,58.7,55.8,30.04,South,182,0.0,0.0,90,0.00,,,0.00,0,Wunderground v.1.15,2013-08-06 01:54:00,
2013-08-05 21:59:00,58.4,55.5,30.04,South,182,0.0,0.0,90,0.00,,,0.00,0,Wunderground v.1.15,2013-08-06 01:59:00,
2013-08-05 22:04:00,58.0,55.4,30.04,South,182,0.0,0.0,91,0.00,,,0.00,0,Wunderground v.1.15,2013-08-06 02:04:00,
2013-08-05 22:10:00,57.6,55.3,30.04,South,182,0.0,0.0,92,0.00,,,0.00,0,Wunderground v.1.15,2013-08-06 02:10:00,
2013-08-05 22:15:00,57.3,55.3,30.04,South,182,0.0,0.0,93,0.00,,,0.00,0,Wunderground v.1.15,2013-08-06 02:15:00,
2013-08-05 22:20:00,57.1,55.1,30.04,South,182,0.0,0.0,93,0.00,,,0.00,0,Wunderground v.1.15,2013-08-06 02:20:00,
2013-08-05 22:25:00,57.0,55.0,30.04,South,182,0.0,0.0,93,0.00,,,0.00,0,Wunderground v.1.15,2013-08-06 02:25:00,
2013-08-05 22:30:00,56.7,54.7,30.04,South,182,0.0,0.0,93,0.00,,,0.00,0,Wunderground v.1.15,2013-08-06 02:30:00,
2013-08-05 22:39:00,56.5,54.5,30.04,South,182,0.0,0.0,93,0.00,,,0.00,0,Wunderground v.1.15,2013-08-06 02:39:00,
2013-08-05 22:44:00,56.4,54.4,30.04,South,182,0.0,0.0,93,0.00,,,0.00,0,Wunderground v.1.15,2013-08-06 02:44:00,
2013-08-05 22:51:00,56.7,55.0,30.04,South,182,0.0,0.0,94,0.00,,,0.00,0,Wunderground v.1.15,2013-08-06 02:51:00,
2013-08-05 22:59:00,56.6,54.6,30.04,South,182,0.0,0.0,93,0.00,,,0.00,0,Wunderground v.1.15,2013-08-06 02:59:00,
2013-08-05 23:05:00,56.3,54.3,30.04,South,182,0.0,0.0,93,0.00,,,0.00,0,Wunderground v.1.15,2013-08-06 03:05:00,
2013-08-05 23:11:00,55.9,54.2,30.04,South,182,0.0,0.0,94,0.00,,,0.00,0,Wunderground v.1.15,2013-08-06 03:11:00,
2013-08-05 23:16:00,55.7,54.3,30.04,South,182,0.0,0.0,95,0.00,,,0.00,0,Wunderground v.1.15,2013-08-06 03:16:00,
2013-08-05 23:21:00,55.6,54.2,30.04,South,182,0.0,0.0,95,0.00,,,0.00,0,Wunderground v.1.15,2013-08-06 03:21:00,
2013-08-05 23:27:00,55.4,54.0,30.05,South,182,0.0,0.0,95,0.00,,,0.00,0,Wunderground v.1.15,2013-08-06 03:27:00,
2013-08-05 23:33:00,55.2,53.5,30.05,South,182,0.0,0.0,94,0.00,,,0.00,0,Wunderground v.1.15,2013-08-06 03:33:00,
2013-08-05 23:39:00,55.1,53.7,30.05,South,182,0.0,0.0,95,0.00,,,0.00,0,Wunderground v.1.15,2013-08-06 03:39:00,
2013-08-05 23:44:00,55.3,54.2,30.05,South,182,0.0,0.0,96,0.00,,,0.00,0,Wunderground v.1.15,2013-08-06 03:44:00,
2013-08-05 23:49:00,55.2,53.8,30.05,South,182,0.0,0.0,95,0.00,,,0.00,0,Wunderground v.1.15,2013-08-06 03:49:00,
2013-08-05 23:54:00,55.0,53.6,30.05,South,182,0.0,0.0,95,0.00,,,0.00,0,Wunderground v.1.15,2013-08-06 03:54:00,